Time;durP1;ratioP1;P1;durP2;ratioP2;P2;SDS_P1;SDS_P2;PMS_P1;PMS_P2;Temp;Humidity;BMP_temperature;BMP_pressure;BME280_temperature;BME280_humidity;BME280_pressure;Samples;Min_cycle;Max_cycle;Signal;HPM_P1;HPM_P2
2023/10/15 00:00:51;;;;;;;11.10;4.70;;;;;;;16.59;77.62;99982.23;125374;1099;104181;-78
2023/10/15 00:03:40;;;;;;;11.27;4.50;;;;;;;16.57;77.78;99979.58;125175;1099;101858;-78
2023/10/15 00:06:09;;;;;;;11.50;4.60;;;;;;;16.54;77.34;99972.50;124928;1099;104073;-78
2023/10/15 00:08:37;;;;;;;11.70;4.93;;;;;;;16.52;77.62;99971.63;125485;1099;102175;-78
2023/10/15 00:11:13;;;;;;;8.40;4.20;;;;;;;16.50;77.72;99977.78;125376;1099;104227;-78
2023/10/15 00:13:42;;;;;;;10.63;4.30;;;;;;;16.49;77.30;99976.03;125453;1099;104223;-78
2023/10/15 00:16:17;;;;;;;12.93;4.33;;;;;;;16.47;77.68;99978.68;125400;1099;101884;-78
2023/10/15 00:18:46;;;;;;;10.07;4.60;;;;;;;16.47;77.99;99967.18;125403;1099;104303;-78
2023/10/15 00:21:14;;;;;;;16.87;5.20;;;;;;;16.46;77.85;99962.78;125464;1099;104319;-78
2023/10/15 00:23:46;;;;;;;11.73;5.30;;;;;;;16.44;77.87;99961.88;125424;1099;104249;-78
2023/10/15 00:26:15;;;;;;;9.03;4.70;;;;;;;16.43;78.05;99958.35;125426;1098;102044;-78
2023/10/15 00:28:48;;;;;;;;;;;;;;;16.39;77.33;99961.86;125444;1099;104249;-78
2023/10/15 00:31:17;;;;;;;11.25;5.00;;;;;;;16.39;77.74;99964.50;124969;1099;101923;-78
2023/10/15 00:33:46;;;;;;;9.20;5.23;;;;;;;16.40;77.73;99966.29;125430;1099;104172;-78
2023/10/15 00:36:15;;;;;;;13.03;4.87;;;;;;;16.41;78.28;99972.45;125288;1099;101879;-77
2023/10/15 00:38:45;;;;;;;10.77;4.80;;;;;;;16.41;77.95;99967.16;125291;1098;104221;-77
2023/10/15 00:41:14;;;;;;;10.23;4.63;;;;;;;16.40;77.68;99960.12;125379;1099;104152;-77
2023/10/15 00:43:55;;;;;;;11.63;5.20;;;;;;;16.37;78.50;99958.33;125367;1099;104159;-77
2023/10/15 00:46:26;;;;;;;11.30;5.17;;;;;;;16.33;77.83;99964.48;125372;1099;104351;-77
2023/10/15 00:48:56;;;;;;;9.10;4.60;;;;;;;16.33;78.30;99953.89;125248;1099;104252;-77
2023/10/15 00:51:25;;;;;;;11.23;4.87;;;;;;;16.34;78.01;99955.67;125406;1099;104270;-77
2023/10/15 00:53:58;;;;;;;9.77;4.57;;;;;;;16.34;78.15;99956.55;125226;1099;101852;-77
2023/10/15 00:56:33;;;;;;;8.40;4.17;;;;;;;16.33;78.44;99951.25;125353;1099;104175;-78
2023/10/15 00:59:15;;;;;;;9.50;4.93;;;;;;;16.31;78.74;99951.27;125397;1098;103065;-77
2023/10/15 01:01:54;;;;;;;8.47;4.40;;;;;;;16.30;78.66;99948.63;125356;1098;102209;-78
2023/10/15 01:04:26;;;;;;;12.00;4.70;;;;;;;16.28;78.61;99948.61;125351;1099;104121;-77
2023/10/15 01:07:00;;;;;;;10.83;4.70;;;;;;;16.32;78.55;99950.38;125459;1099;104169;-77
2023/10/15 01:09:29;;;;;;;9.77;5.07;;;;;;;16.34;78.43;99945.08;125281;1099;104204;-78
2023/10/15 01:12:18;;;;;;;13.00;5.30;;;;;;;16.35;79.09;99947.73;125316;1099;102045;-77
2023/10/15 01:14:47;;;;;;;13.20;4.93;;;;;;;16.34;78.44;99938.02;125393;1099;104047;-78
2023/10/15 01:17:16;;;;;;;8.53;4.67;;;;;;;16.38;78.93;99940.67;125395;1099;104275;-78
2023/10/15 01:19:45;;;;;;;9.73;4.50;;;;;;;16.39;78.76;99938.03;125345;1099;104194;-78
2023/10/15 01:22:18;;;;;;;12.53;4.73;;;;;;;16.39;79.18;99932.73;125550;1099;102053;-80
2023/10/15 01:24:50;;;;;;;14.40;4.63;;;;;;;16.40;79.03;99928.34;125464;1099;102644;-78
2023/10/15 01:27:27;;;;;;;12.10;4.73;;;;;;;16.41;79.41;99925.70;125287;1099;103385;-78
2023/10/15 01:29:58;;;;;;;12.60;4.50;;;;;;;16.38;78.83;99924.78;125346;1098;104246;-77
2023/10/15 01:32:30;;;;;;;9.10;4.53;;;;;;;16.38;79.29;99925.69;125376;1099;102029;-77
2023/10/15 01:35:00;;;;;;;8.73;4.20;;;;;;;16.39;78.88;99923.91;125356;1099;101826;-78
2023/10/15 01:37:30;;;;;;;11.17;4.70;;;;;;;16.39;79.54;99916.84;125308;1099;104192;-78
2023/10/15 01:40:00;;;;;;;8.03;4.20;;;;;;;16.37;79.16;99915.97;125451;1099;104204;-78
2023/10/15 01:42:34;;;;;;;11.20;4.30;;;;;;;16.37;79.36;99917.74;125532;1099;104169;-78
2023/10/15 01:45:16;;;;;;;14.13;4.43;;;;;;;16.39;79.35;99926.56;125429;1099;104159;-78
2023/10/15 01:48:06;;;;;;;9.60;4.40;;;;;;;16.40;79.50;99925.70;125523;1099;104238;-78
2023/10/15 01:50:41;;;;;;;9.53;4.30;;;;;;;16.38;79.09;99920.39;125536;1099;104387;-78
2023/10/15 01:53:11;;;;;;;11.97;4.60;;;;;;;16.38;79.70;99924.78;125442;1099;104434;-77
2023/10/15 01:55:52;;;;;;;12.80;4.60;;;;;;;16.39;79.47;99923.91;125420;1099;102244;-78
2023/10/15 01:58:24;;;;;;;11.97;4.53;;;;;;;16.40;79.77;99925.70;125500;1099;104082;-78
2023/10/15 02:00:53;;;;;;;12.97;4.43;;;;;;;16.35;79.09;99923.03;124880;1099;101859;-77
2023/10/15 02:03:25;;;;;;;10.13;4.37;;;;;;;16.36;79.55;99927.42;125461;1098;102095;-78
2023/10/15 02:05:54;;;;;;;8.43;4.30;;;;;;;16.35;79.42;99926.55;125381;1099;104343;-78
2023/10/15 02:08:24;;;;;;;8.50;4.17;;;;;;;16.38;79.50;99922.14;125456;1099;104066;-78
2023/10/15 02:10:53;;;;;;;8.57;3.83;;;;;;;16.38;79.98;99924.78;124886;1099;101933;-78
2023/10/15 02:13:22;;;;;;;10.93;4.80;;;;;;;16.39;79.69;99915.97;125515;1099;102316;-78
2023/10/15 02:15:50;;;;;;;8.23;3.93;;;;;;;16.41;79.50;99907.16;125346;1099;104333;-78
2023/10/15 02:18:19;;;;;;;9.37;4.00;;;;;;;16.42;80.07;99905.39;125415;1099;104163;-78
2023/10/15 02:21:00;;;;;;;9.50;4.23;;;;;;;16.42;79.56;99895.67;124912;1099;102067;-78
2023/10/15 02:23:32;;;;;;;9.57;4.13;;;;;;;16.41;79.99;99899.22;124851;1099;104085;-78
2023/10/15 02:26:01;;;;;;;9.90;3.80;;;;;;;16.43;80.04;99904.52;125515;1099;101864;-78
2023/10/15 02:28:31;;;;;;;13.13;4.00;;;;;;;16.38;79.45;99899.22;125534;1098;104293;-79
2023/10/15 02:31:14;;;;;;;10.13;4.07;;;;;;;16.33;79.77;99903.59;125507;1099;102130;-79
2023/10/15 02:33:42;;;;;;;11.37;4.50;;;;;;;16.33;79.61;99893.91;125507;1099;104172;-78
2023/10/15 02:36:16;;;;;;;8.30;4.00;;;;;;;16.34;80.11;99897.43;124937;1099;104109;-78
2023/10/15 02:38:56;;;;;;;11.53;4.17;;;;;;;16.33;80.05;99900.95;125506;1099;101855;-78
2023/10/15 02:41:30;;;;;;;9.40;4.17;;;;;;;16.34;79.97;99894.78;124864;1099;102459;-79
2023/10/15 02:43:59;;;;;;;10.37;4.00;;;;;;;16.32;80.29;99884.19;125445;1099;104172;-78
2023/10/15 02:46:37;;;;;;;6.47;3.93;;;;;;;16.31;80.22;99885.09;125534;1099;102111;-78
2023/10/15 02:49:07;;;;;;;8.70;4.23;;;;;;;16.24;79.84;99883.30;124961;1099;104174;-78
2023/10/15 02:51:36;;;;;;;7.23;3.93;;;;;;;16.19;80.51;99877.11;125476;1099;104186;-79
2023/10/15 02:54:18;;;;;;;7.93;4.07;;;;;;;16.12;79.96;99876.19;125478;1099;104242;-79
2023/10/15 02:56:47;;;;;;;10.10;3.97;;;;;;;16.10;80.33;99872.66;125394;1098;102186;-78
2023/10/15 02:59:16;;;;;;;7.53;3.90;;;;;;;16.11;80.34;99876.19;125464;1099;104136;-78
2023/10/15 03:01:46;;;;;;;10.53;4.30;;;;;;;16.10;79.86;99875.31;125412;1099;102077;-78
2023/10/15 03:04:32;;;;;;;11.37;4.30;;;;;;;16.11;80.04;99868.23;125583;1099;102015;-78
2023/10/15 03:07:18;;;;;;;8.43;3.93;;;;;;;16.11;79.99;99860.30;125502;1099;104169;-79
2023/10/15 03:09:52;;;;;;;10.53;4.00;;;;;;;16.11;79.99;99858.56;125321;1099;101961;-78
2023/10/15 03:12:21;;;;;;;8.20;4.03;;;;;;;16.12;80.56;99856.78;125425;1099;102112;-78
2023/10/15 03:14:51;;;;;;;12.40;3.90;;;;;;;16.15;80.14;99860.31;125392;1099;104124;-78
2023/10/15 03:17:25;;;;;;;12.77;5.00;;;;;;;16.15;80.19;99856.80;125576;1099;104733;-78
2023/10/15 03:19:54;;;;;;;;;;;;;;;16.12;79.94;99848.84;125213;1099;102091;-78
2023/10/15 03:22:24;;;;;;;11.67;4.00;;;;;;;16.13;79.99;99840.91;125367;1096;104223;-78
2023/10/15 03:24:56;;;;;;;10.77;4.20;;;;;;;16.13;80.73;99843.56;125479;1099;101833;-78
2023/10/15 03:27:27;;;;;;;9.80;4.20;;;;;;;16.17;80.92;99844.44;125437;1099;102291;-77
2023/10/15 03:29:56;;;;;;;11.50;4.30;;;;;;;16.19;80.79;99840.05;125435;1099;103203;-77
2023/10/15 03:32:31;;;;;;;10.20;4.13;;;;;;;16.18;80.32;99849.73;125441;1098;101883;-78
2023/10/15 03:35:06;;;;;;;11.87;4.00;;;;;;;16.22;80.53;99849.74;125418;1099;102877;-78
2023/10/15 03:37:45;;;;;;;10.77;3.93;;;;;;;16.23;80.33;99841.80;125438;1099;104044;-77
2023/10/15 03:40:30;;;;;;;8.30;4.27;;;;;;;16.26;80.88;99848.88;125441;1099;102057;-77
2023/10/15 03:43:01;;;;;;;10.97;3.97;;;;;;;16.25;80.79;99849.75;125499;1099;104166;-78
2023/10/15 03:45:32;;;;;;;11.47;3.83;;;;;;;16.20;80.44;99844.45;125564;1099;102144;-78
2023/10/15 03:48:01;;;;;;;11.50;4.53;;;;;;;16.16;80.38;99845.34;125490;1099;104258;-78
2023/10/15 03:50:29;;;;;;;10.53;4.23;;;;;;;16.12;80.72;99841.78;125587;1099;101868;-79
2023/10/15 03:52:58;;;;;;;9.63;4.07;;;;;;;16.11;80.92;99842.68;125518;1099;102168;-78
2023/10/15 03:55:30;;;;;;;8.70;4.10;;;;;;;16.10;80.93;99842.67;125529;1099;102058;-78
2023/10/15 03:57:58;;;;;;;10.27;4.10;;;;;;;16.09;80.76;99833.83;125474;1099;104255;-78
2023/10/15 04:00:35;;;;;;;8.33;3.70;;;;;;;16.08;81.30;99840.03;125416;1099;101926;-79
2023/10/15 04:03:17;;;;;;;12.30;3.87;;;;;;;16.06;81.17;99832.95;125344;1099;104169;-78
2023/10/15 04:05:53;;;;;;;12.10;4.00;;;;;;;16.06;81.16;99836.47;125342;1098;104199;-78
2023/10/15 04:08:25;;;;;;;10.63;3.90;;;;;;;16.08;81.18;99834.73;125345;1099;104188;-79
2023/10/15 04:10:57;;;;;;;9.00;3.75;;;;;;;16.09;81.31;99833.83;125451;1099;104260;-78
2023/10/15 04:13:26;;;;;;;9.00;3.73;;;;;;;16.12;81.44;99833.84;125431;1099;101954;-77
2023/10/15 04:15:56;;;;;;;10.97;4.23;;;;;;;16.12;81.16;99832.97;125362;1099;104163;-78
2023/10/15 04:18:25;;;;;;;9.53;3.90;;;;;;;16.08;80.75;99832.09;125385;1099;101855;-78
2023/10/15 04:20:56;;;;;;;11.07;3.90;;;;;;;16.09;80.95;99831.19;125426;1099;102006;-78
2023/10/15 04:23:30;;;;;;;7.43;3.70;;;;;;;16.13;81.06;99838.27;125418;1099;104226;-78
2023/10/15 04:26:04;;;;;;;9.73;3.93;;;;;;;16.16;80.96;99845.34;125346;1099;101942;-77
2023/10/15 04:28:34;;;;;;;11.20;3.80;;;;;;;16.18;81.05;99843.57;125402;1098;104082;-78
2023/10/15 04:31:11;;;;;;;7.30;3.63;;;;;;;16.17;80.79;99836.50;125493;1098;101820;-77
2023/10/15 04:33:41;;;;;;;9.83;3.73;;;;;;;16.12;80.46;99832.97;125308;1099;104179;-78
2023/10/15 04:36:10;;;;;;;9.77;4.07;;;;;;;16.08;81.18;99829.44;125396;1098;101901;-78
2023/10/15 04:38:38;;;;;;;10.23;4.10;;;;;;;16.07;80.82;99825.02;125369;1099;101980;-78
2023/10/15 04:41:07;;;;;;;10.53;3.83;;;;;;;16.09;81.19;99828.54;125442;1099;101858;-78
2023/10/15 04:43:41;;;;;;;11.90;4.33;;;;;;;16.09;81.06;99825.89;125346;1099;104252;-78
2023/10/15 04:46:17;;;;;;;8.73;3.87;;;;;;;16.14;81.41;99826.81;125463;1098;104172;-79
2023/10/15 04:48:47;;;;;;;9.73;4.00;;;;;;;16.13;81.61;99826.81;125285;1098;104347;-80
2023/10/15 04:51:16;;;;;;;9.20;4.00;;;;;;;16.14;81.12;99832.11;125430;1099;104226;-80
2023/10/15 04:53:45;;;;;;;13.03;4.17;;;;;;;16.13;81.29;99840.04;125522;1099;104172;-80
2023/10/15 04:56:14;;;;;;;12.20;4.23;;;;;;;16.17;81.58;99839.14;125537;1099;104079;-79
2023/10/15 04:58:43;;;;;;;8.00;4.20;;;;;;;16.21;81.85;99840.06;125564;1099;101830;-81
2023/10/15 05:01:12;;;;;;;8.07;4.07;;;;;;;16.25;81.70;99834.77;125451;1098;104233;-81
2023/10/15 05:03:45;;;;;;;11.80;4.30;;;;;;;16.27;81.27;99830.36;125549;1099;102083;-80
2023/10/15 05:06:14;;;;;;;8.03;4.45;;;;;;;16.30;81.47;99840.08;125414;1099;104262;-80
2023/10/15 05:08:47;;;;;;;10.63;4.00;;;;;;;16.33;81.81;99833.02;125485;1099;104159;-80
2023/10/15 05:11:21;;;;;;;8.17;4.27;;;;;;;16.34;81.56;99837.41;125457;1099;104338;-82
2023/10/15 05:13:50;;;;;;;6.63;3.80;;;;;;;16.36;81.92;99842.70;125332;1099;102012;-80
2023/10/15 05:16:19;;;;;;;9.17;3.97;;;;;;;16.39;82.05;99842.70;125417;1099;101836;-79
2023/10/15 05:18:48;;;;;;;10.87;4.17;;;;;;;16.40;81.43;99848.91;125522;1098;104648;-79
2023/10/15 05:21:16;;;;;;;10.90;4.17;;;;;;;16.43;81.55;99847.14;125376;1099;104226;-79
2023/10/15 05:23:45;;;;;;;9.13;4.20;;;;;;;16.48;81.52;99840.08;125464;1099;101859;-78
2023/10/15 05:26:16;;;;;;;9.73;4.03;;;;;;;16.53;82.14;99838.34;124946;1099;102541;-78
2023/10/15 05:28:44;;;;;;;8.63;4.17;;;;;;;16.59;81.97;99837.44;125426;1099;104211;-79
2023/10/15 05:31:13;;;;;;;15.03;4.90;;;;;;;16.62;81.81;99844.52;125504;1099;104198;-79
2023/10/15 05:33:41;;;;;;;6.20;3.77;;;;;;;16.66;81.87;99841.87;125223;1099;102176;-79
2023/10/15 05:36:10;;;;;;;10.20;4.27;;;;;;;16.71;81.76;99839.22;125509;1099;104629;-79
2023/10/15 05:38:38;;;;;;;9.07;4.23;;;;;;;16.74;81.70;99836.57;125493;1099;101926;-79
2023/10/15 05:41:09;;;;;;;11.13;3.80;;;;;;;16.78;81.74;99840.09;125362;1099;102102;-77
2023/10/15 05:43:37;;;;;;;11.70;4.30;;;;;;;16.78;81.66;99841.00;125382;1099;102265;-78
2023/10/15 05:46:06;;;;;;;11.73;4.43;;;;;;;16.79;82.17;99837.44;125318;1099;104256;-79
2023/10/15 05:48:34;;;;;;;8.10;4.00;;;;;;;16.77;82.00;99833.92;125332;1099;104288;-79
2023/10/15 05:51:03;;;;;;;9.87;4.23;;;;;;;16.79;81.98;99837.44;124979;1099;102441;-78
2023/10/15 05:53:32;;;;;;;6.27;4.00;;;;;;;16.79;81.73;99834.80;125250;1099;104363;-78
2023/10/15 05:56:01;;;;;;;8.13;3.97;;;;;;;16.80;81.49;99835.70;125299;1097;104176;-77
2023/10/15 05:58:30;;;;;;;11.35;4.15;;;;;;;16.82;82.01;99837.44;125517;1099;101797;-77
2023/10/15 06:00:59;;;;;;;8.80;4.27;;;;;;;16.89;81.80;99828.66;125398;1099;104192;-77
2023/10/15 06:03:28;;;;;;;7.17;4.30;;;;;;;16.97;81.60;99822.44;125434;1099;102176;-78
2023/10/15 06:05:58;;;;;;;9.35;4.30;;;;;;;16.99;81.88;99828.64;125326;1099;104245;-78
2023/10/15 06:08:26;;;;;;;6.80;3.67;;;;;;;17.01;81.67;99822.44;125440;1099;102270;-77
2023/10/15 06:10:55;;;;;;;11.17;4.20;;;;;;;17.05;81.80;99828.64;125422;1099;102105;-78
2023/10/15 06:13:24;;;;;;;9.23;4.07;;;;;;;17.08;81.29;99823.33;125417;1099;101900;-78
2023/10/15 06:15:52;;;;;;;10.47;4.37;;;;;;;17.11;81.33;99825.08;125371;1099;104310;-79
2023/10/15 06:18:21;;;;;;;9.47;4.57;;;;;;;17.13;81.49;99821.55;125434;1099;104189;-78
2023/10/15 06:20:50;;;;;;;10.97;4.53;;;;;;;17.20;81.67;99820.66;125497;1099;104236;-79
2023/10/15 06:23:18;;;;;;;13.27;4.73;;;;;;;17.27;81.59;99823.30;125482;1099;104214;-78
2023/10/15 06:25:47;;;;;;;10.73;4.03;;;;;;;17.29;81.57;99826.81;125647;1099;104750;-79
2023/10/15 06:28:15;;;;;;;13.73;4.70;;;;;;;17.33;81.46;99825.94;125476;1099;104246;-78
2023/10/15 06:30:45;;;;;;;10.60;4.07;;;;;;;17.40;81.74;99825.87;125483;1099;104156;-78
2023/10/15 06:33:14;;;;;;;8.93;4.10;;;;;;;17.43;81.58;99820.56;125429;1098;102041;-77
2023/10/15 06:35:43;;;;;;;10.17;4.63;;;;;;;17.48;81.25;99817.03;125131;1099;104175;-79
2023/10/15 06:38:11;;;;;;;10.80;4.07;;;;;;;17.50;81.22;99817.90;125428;1099;101889;-78
2023/10/15 06:40:40;;;;;;;8.73;4.23;;;;;;;17.53;80.72;99821.45;125332;1099;104220;-79
2023/10/15 06:43:08;;;;;;;11.30;4.03;;;;;;;17.54;81.30;99819.66;125406;1099;104197;-77
2023/10/15 06:45:37;;;;;;;11.47;4.40;;;;;;;17.52;81.06;99814.36;125326;1099;101907;-78
2023/10/15 06:48:07;;;;;;;12.30;4.10;;;;;;;17.56;81.21;99815.23;125320;1098;101891;-78
2023/10/15 06:50:36;;;;;;;10.83;4.60;;;;;;;17.57;80.91;99817.87;125328;1099;102092;-78
2023/10/15 06:53:05;;;;;;;8.40;4.20;;;;;;;17.58;81.08;99811.69;125434;1099;104274;-78
2023/10/15 06:55:35;;;;;;;7.13;3.97;;;;;;;17.65;81.04;99815.19;125427;1099;104526;-78
2023/10/15 06:58:04;;;;;;;11.10;4.00;;;;;;;17.66;80.93;99810.78;125502;1099;104316;-77
2023/10/15 07:00:36;;;;;;;10.70;4.33;;;;;;;17.65;80.90;99812.53;125477;1099;104235;-78
2023/10/15 07:03:05;;;;;;;10.43;4.37;;;;;;;17.65;80.59;99807.23;125408;1099;104233;-78
2023/10/15 07:05:33;;;;;;;10.33;4.07;;;;;;;17.65;80.74;99801.92;125365;1099;102320;-77
2023/10/15 07:08:05;;;;;;;7.67;3.73;;;;;;;17.68;80.58;99795.73;125061;1099;106991;-78
2023/10/15 07:10:36;;;;;;;10.53;4.10;;;;;;;17.71;80.55;99795.72;125619;1099;101820;-78
2023/10/15 07:13:06;;;;;;;7.33;3.67;;;;;;;17.71;80.43;99801.03;125355;1099;101800;-78
2023/10/15 07:15:36;;;;;;;6.50;4.10;;;;;;;17.67;80.44;99793.95;125568;1099;101896;-79
2023/10/15 07:18:06;;;;;;;10.60;4.03;;;;;;;17.69;80.42;99794.86;125156;1099;118610;-80
2023/10/15 07:20:35;;;;;;;8.83;4.20;;;;;;;17.74;80.67;99785.09;125461;1099;101970;-77
2023/10/15 07:23:04;;;;;;;13.17;4.67;;;;;;;17.82;80.35;99785.05;125357;1099;104053;-79
2023/10/15 07:25:33;;;;;;;8.23;4.30;;;;;;;17.89;80.35;99787.70;125421;1099;104246;-77
2023/10/15 07:28:02;;;;;;;10.27;4.10;;;;;;;17.96;80.48;99780.58;125373;1099;101983;-79
2023/10/15 07:30:34;;;;;;;8.23;3.93;;;;;;;18.07;80.04;99783.16;125242;1099;101888;-80
2023/10/15 07:33:03;;;;;;;7.60;3.87;;;;;;;18.16;80.34;99783.11;125388;1099;102370;-78
2023/10/15 07:35:31;;;;;;;9.30;4.00;;;;;;;18.29;79.75;99784.80;125467;1098;101827;-78
2023/10/15 07:38:02;;;;;;;7.83;4.33;;;;;;;18.41;79.54;99777.63;125266;1099;104233;-77
2023/10/15 07:40:32;;;;;;;9.17;4.00;;;;;;;18.46;79.62;99774.02;125357;1098;104201;-80
2023/10/15 07:43:02;;;;;;;9.23;4.13;;;;;;;18.55;79.48;99778.38;125054;1099;102434;-78
2023/10/15 07:45:32;;;;;;;8.37;3.90;;;;;;;18.65;79.26;99773.86;125038;1098;101922;-79
2023/10/15 07:48:03;;;;;;;14.83;4.40;;;;;;;18.75;79.54;99774.68;125431;1099;103423;-78
2023/10/15 07:50:34;;;;;;;12.23;4.40;;;;;;;18.86;79.06;99778.14;125103;1099;101922;-80
2023/10/15 07:53:04;;;;;;;6.97;3.90;;;;;;;18.94;78.52;99770.96;125474;1099;104251;-79
2023/10/15 07:55:32;;;;;;;8.63;4.00;;;;;;;19.02;78.83;99753.14;125281;1099;101925;-79
2023/10/15 07:58:01;;;;;;;9.20;4.10;;;;;;;19.10;79.26;99749.53;125537;1099;104408;-81
2023/10/15 08:00:30;;;;;;;10.40;3.90;;;;;;;19.15;78.10;99747.69;125586;1099;102074;-81
2023/10/15 08:02:59;;;;;;;8.53;4.13;;;;;;;19.23;77.64;99753.83;125515;1099;102028;-79
2023/10/15 08:05:31;;;;;;;10.27;4.10;;;;;;;19.32;78.18;99740.42;125554;1099;101804;-79
2023/10/15 08:08:00;;;;;;;9.20;4.17;;;;;;;19.43;78.14;99739.39;125541;1099;104314;-80
2023/10/15 08:10:33;;;;;;;9.83;3.70;;;;;;;19.51;77.49;99740.16;125497;1099;104204;-79
2023/10/15 08:13:02;;;;;;;9.68;3.92;;;;;;;19.60;76.96;99736.51;125585;1099;101884;-79
2023/10/15 08:15:33;;;;;;;8.70;4.00;;;;;;;19.69;76.98;99733.72;125505;1099;102099;-78
2023/10/15 08:18:02;;;;;;;8.67;4.03;;;;;;;19.79;76.65;99739.83;125553;1099;102225;-79
2023/10/15 08:20:31;;;;;;;9.70;4.07;;;;;;;19.88;76.36;99726.37;125516;1099;102351;-79
2023/10/15 08:23:13;;;;;;;8.47;3.90;;;;;;;20.01;75.81;99733.30;125534;1099;104165;-80
2023/10/15 08:25:42;;;;;;;9.77;3.67;;;;;;;20.15;75.64;99727.76;125461;1099;104149;-79
2023/10/15 08:28:10;;;;;;;8.77;4.00;;;;;;;20.28;75.95;99733.75;125494;1099;104192;-79
2023/10/15 08:30:41;;;;;;;7.10;3.83;;;;;;;20.36;75.38;99725.64;125472;1099;104166;-78
2023/10/15 08:33:12;;;;;;;10.67;4.37;;;;;;;20.46;74.66;99725.45;125350;1099;104217;-79
2023/10/15 08:35:41;;;;;;;7.90;3.80;;;;;;;20.54;74.54;99724.45;125401;1098;102176;-79
2023/10/15 08:38:12;;;;;;;9.07;3.60;;;;;;;20.63;74.94;99727.83;125355;1099;102031;-79
2023/10/15 08:40:44;;;;;;;9.07;3.80;;;;;;;20.68;74.19;99729.55;125353;1099;104194;-79
2023/10/15 08:43:20;;;;;;;12.40;3.97;;;;;;;20.70;74.22;99731.29;125677;1098;104239;-80
2023/10/15 08:45:51;;;;;;;7.53;3.90;;;;;;;20.79;74.26;99727.59;125385;1099;104309;-78
2023/10/15 08:48:25;;;;;;;6.90;3.50;;;;;;;20.89;74.04;99725.63;125360;1099;101893;-79
2023/10/15 08:50:57;;;;;;;9.20;3.90;;;;;;;20.98;72.61;99725.45;124813;1099;104265;-78
2023/10/15 08:53:29;;;;;;;9.03;3.80;;;;;;;21.05;73.33;99731.53;125314;1099;104229;-79
2023/10/15 08:55:59;;;;;;;9.20;3.90;;;;;;;21.13;72.36;99729.58;125377;1099;102386;-79
2023/10/15 08:58:30;;;;;;;8.37;3.87;;;;;;;21.21;72.66;99725.00;125334;1098;104313;-78
2023/10/15 09:01:00;;;;;;;9.00;3.93;;;;;;;21.34;72.37;99721.14;125397;1099;104345;-80
2023/10/15 09:03:29;;;;;;;9.07;4.00;;;;;;;21.48;72.08;99715.52;125385;1099;102122;-79
2023/10/15 09:06:01;;;;;;;9.83;3.60;;;;;;;21.60;71.36;99724.19;125310;1099;104176;-79
2023/10/15 09:08:30;;;;;;;8.00;4.00;;;;;;;21.70;71.11;99720.42;125337;1099;102441;-78
2023/10/15 09:10:59;;;;;;;11.03;3.80;;;;;;;21.71;70.86;99722.19;125316;1099;101928;-80
2023/10/15 09:13:28;;;;;;;7.10;3.70;;;;;;;21.73;70.04;99709.67;125086;1099;104195;-77
2023/10/15 09:15:56;;;;;;;11.07;3.50;;;;;;;21.77;70.78;99710.47;125253;1099;102132;-78
2023/10/15 09:18:27;;;;;;;10.03;4.20;;;;;;;21.83;70.67;99716.57;125404;1098;104172;-80
2023/10/15 09:20:58;;;;;;;9.43;4.00;;;;;;;21.87;69.78;99715.56;125503;1098;104163;-80
2023/10/15 09:23:35;;;;;;;6.23;3.67;;;;;;;21.97;69.40;99708.23;125338;1099;104213;-78
2023/10/15 09:26:06;;;;;;;7.97;3.50;;;;;;;22.06;68.95;99708.02;125320;1098;101803;-78
2023/10/15 09:28:35;;;;;;;9.60;3.93;;;;;;;22.14;69.23;99712.27;125409;1099;101816;-77
2023/10/15 09:31:09;;;;;;;6.90;3.70;;;;;;;22.20;68.32;99704.98;125353;1099;104189;-78
2023/10/15 09:33:39;;;;;;;9.33;3.73;;;;;;;22.25;68.23;99707.54;125144;1099;104160;-79
2023/10/15 09:36:08;;;;;;;7.43;3.60;;;;;;;22.32;67.83;99705.64;125241;1099;102005;-77
2023/10/15 09:38:37;;;;;;;9.37;3.70;;;;;;;22.37;67.84;99701.92;125104;1099;104098;-76
2023/10/15 09:41:06;;;;;;;8.07;3.73;;;;;;;22.43;67.03;99696.41;125050;1098;104166;-78
2023/10/15 09:43:36;;;;;;;8.17;3.73;;;;;;;22.51;67.01;99696.22;125244;1099;102405;-77
2023/10/15 09:46:05;;;;;;;9.70;4.13;;;;;;;22.54;65.92;99682.77;125275;1099;104173;-76
2023/10/15 09:48:36;;;;;;;10.10;4.27;;;;;;;22.48;65.87;99685.61;125410;1099;102055;-76
2023/10/15 09:51:07;;;;;;;10.03;3.80;;;;;;;22.41;65.90;99681.36;125211;1098;104325;-76
2023/10/15 09:53:36;;;;;;;9.60;4.00;;;;;;;22.37;65.57;99675.19;125340;1099;101852;-76
2023/10/15 09:56:07;;;;;;;12.43;4.30;;;;;;;22.38;64.95;99676.09;125297;1099;101829;-78
2023/10/15 09:58:37;;;;;;;7.43;3.70;;;;;;;22.45;65.50;99661.62;125487;1099;102310;-77
2023/10/15 10:01:16;;;;;;;8.93;4.10;;;;;;;22.43;65.18;99666.14;125394;1098;102230;-78
2023/10/15 10:04:05;;;;;;;11.57;3.73;;;;;;;22.44;64.46;99660.77;125575;1099;104271;-78
2023/10/15 10:07:01;;;;;;;8.63;4.10;;;;;;;22.53;64.48;99646.28;125433;1099;102035;-78
2023/10/15 10:10:11;;;;;;;8.93;4.00;;;;;;;22.67;64.10;99647.69;124948;1098;104180;-77
2023/10/15 10:13:06;;;;;;;12.47;4.20;;;;;;;22.77;63.89;99643.84;124830;1099;104390;-77
2023/10/15 10:15:43;;;;;;;10.10;4.20;;;;;;;22.86;63.39;99640.91;125348;1099;104197;-77
2023/10/15 10:18:13;;;;;;;8.13;4.07;;;;;;;22.92;63.04;99640.73;125334;1099;104335;-77
2023/10/15 10:20:48;;;;;;;11.17;3.77;;;;;;;23.02;62.95;99643.15;124874;1099;104290;-78
2023/10/15 10:23:17;;;;;;;12.43;4.07;;;;;;;22.98;62.14;99636.98;125419;1099;102063;-78
2023/10/15 10:25:50;;;;;;;9.83;4.30;;;;;;;22.93;61.91;99639.80;124913;1099;101894;-77
2023/10/15 10:28:20;;;;;;;9.07;4.00;;;;;;;22.98;61.89;99639.66;125392;1099;101956;-78
2023/10/15 10:30:54;;;;;;;7.57;3.80;;;;;;;23.02;61.67;99633.31;125287;1099;104166;-78
2023/10/15 10:33:49;;;;;;;10.17;4.23;;;;;;;23.02;61.50;99637.80;125375;1099;104239;-77
2023/10/15 10:36:19;;;;;;;7.03;3.73;;;;;;;22.98;60.82;99634.31;125338;1099;102293;-78
2023/10/15 10:39:00;;;;;;;8.87;3.47;;;;;;;22.93;60.84;99625.55;125483;1099;104249;-79
2023/10/15 10:41:39;;;;;;;14.33;4.27;;;;;;;22.86;60.22;99619.52;125406;1099;104162;-77
2023/10/15 10:44:09;;;;;;;7.37;4.13;;;;;;;22.91;60.13;99620.25;125355;1099;104366;-78
2023/10/15 10:46:44;;;;;;;8.23;3.67;;;;;;;22.97;60.07;99622.75;125599;1097;101900;-78
2023/10/15 10:49:14;;;;;;;11.57;4.40;;;;;;;22.95;59.62;99616.58;125472;1098;104223;-79
2023/10/15 10:51:43;;;;;;;9.13;3.80;;;;;;;22.91;59.75;99614.91;125367;1099;102029;-78
2023/10/15 10:54:30;;;;;;;11.20;4.47;;;;;;;22.91;59.75;99612.23;125347;1099;101938;-77
2023/10/15 10:57:12;;;;;;;8.07;4.03;;;;;;;22.92;59.13;99605.97;125265;1099;104265;-79
2023/10/15 10:59:43;;;;;;;7.93;4.17;;;;;;;22.95;58.97;99607.66;125209;1099;104214;-78
2023/10/15 11:02:13;;;;;;;8.00;3.87;;;;;;;23.02;59.19;99613.72;125020;1099;101845;-80
2023/10/15 11:04:42;;;;;;;13.13;4.50;;;;;;;23.03;58.98;99612.78;125442;1099;104168;-78
2023/10/15 11:07:13;;;;;;;11.27;4.30;;;;;;;23.06;58.84;99610.91;125351;1099;104241;-78
2023/10/15 11:09:42;;;;;;;10.07;4.23;;;;;;;23.10;58.84;99606.37;125317;1099;104176;-78
2023/10/15 11:12:11;;;;;;;11.65;4.40;;;;;;;23.12;58.53;99605.41;125397;1099;104324;-77
2023/10/15 11:14:41;;;;;;;10.23;4.33;;;;;;;23.14;58.33;99598.20;125380;1099;102262;-78
2023/10/15 11:17:09;;;;;;;10.90;4.10;;;;;;;23.19;58.22;99595.39;125309;1099;101794;-77
2023/10/15 11:19:39;;;;;;;13.27;4.50;;;;;;;23.22;57.97;99597.97;125226;1099;104243;-78
2023/10/15 11:22:08;;;;;;;7.47;4.00;;;;;;;23.26;58.16;99599.61;125212;1099;104174;-78
2023/10/15 11:24:37;;;;;;;11.10;4.10;;;;;;;23.29;57.83;99587.94;125345;1099;101827;-78
2023/10/15 11:27:11;;;;;;;10.87;4.37;;;;;;;23.31;57.93;99588.76;125209;1099;104233;-78
2023/10/15 11:29:40;;;;;;;10.53;4.20;;;;;;;23.24;57.43;99582.73;125359;1099;104169;-79
2023/10/15 11:32:11;;;;;;;9.07;4.20;;;;;;;23.18;57.22;99582.92;125304;1099;102076;-78
2023/10/15 11:34:41;;;;;;;10.17;4.10;;;;;;;23.18;57.08;99577.56;124796;1099;102015;-79